Time;durP1;ratioP1;P1;durP2;ratioP2;P2;SDS_P1;SDS_P2;PMS_P1;PMS_P2;Temp;Humidity;BMP_temperature;BMP_pressure;BME280_temperature;BME280_humidity;BME280_pressure;Samples;Min_cycle;Max_cycle;Signal;HPM_P1;HPM_P2
2022/06/01 00:01:11;;;;;;;4.68;3.03;;;;;;;9.47;100.00;100302.00;6091538;29;20315;-90
2022/06/01 00:04:13;;;;;;;6.80;3.60;;;;;;;9.50;100.00;100312.06;6091679;29;20095;-90
2022/06/01 00:07:15;;;;;;;3.67;3.30;;;;;;;9.51;100.00;100307.72;6099071;29;20052;-90
2022/06/01 00:10:18;;;;;;;3.92;3.17;;;;;;;9.50;100.00;100299.16;6091849;29;20055;-90
2022/06/01 00:13:21;;;;;;;4.38;3.53;;;;;;;9.48;100.00;100294.09;6091697;29;20076;-90
2022/06/01 00:16:23;;;;;;;3.70;3.13;;;;;;;9.48;100.00;100298.44;6089921;29;20601;-90
2022/06/01 00:19:26;;;;;;;3.83;3.22;;;;;;;9.48;100.00;100293.28;6091461;29;20127;-90
2022/06/01 00:22:28;;;;;;;5.22;3.65;;;;;;;9.52;100.00;100293.88;6091795;29;20517;-90
2022/06/01 00:25:30;;;;;;;5.10;3.53;;;;;;;9.51;100.00;100292.22;6062622;29;20051;-90
2022/06/01 00:28:33;;;;;;;4.07;2.88;;;;;;;9.52;100.00;100293.88;6092019;29;20134;-90
2022/06/01 00:31:35;;;;;;;3.80;3.28;;;;;;;9.54;100.00;100290.22;6073719;29;20086;-90
2022/06/01 00:34:38;;;;;;;6.82;3.35;;;;;;;9.63;100.00;100292.06;6072210;29;20051;-90
2022/06/01 00:37:41;;;;;;;6.70;3.50;;;;;;;9.66;100.00;100286.69;6089560;29;20485;-90
2022/06/01 00:40:44;;;;;;;5.65;3.30;;;;;;;9.67;100.00;100288.31;6089088;29;20490;-90
2022/06/01 00:43:46;;;;;;;4.20;3.15;;;;;;;9.75;100.00;100281.72;6091114;29;20469;-90
2022/06/01 00:46:48;;;;;;;3.47;2.80;;;;;;;9.80;100.00;100277.81;6073116;29;20130;-90
2022/06/01 00:50:00;;;;;;;3.75;2.90;;;;;;;9.84;100.00;100273.25;6088093;29;20175;-90
2022/06/01 00:53:07;;;;;;;4.03;3.28;;;;;;;9.91;100.00;100272.63;6090628;29;20051;-90
2022/06/01 00:56:23;;;;;;;4.43;3.17;;;;;;;9.99;100.00;100277.19;6091032;29;20040;-90
2022/06/01 00:59:33;;;;;;;4.50;2.90;;;;;;;10.05;100.00;100271.50;6079973;29;20051;-90
2022/06/01 01:02:37;;;;;;;4.47;3.50;;;;;;;10.12;100.00;100271.84;6090141;29;20419;-90
2022/06/01 01:05:43;;;;;;;4.60;3.17;;;;;;;10.14;100.00;100268.19;6097978;29;20421;-89
2022/06/01 01:08:49;;;;;;;4.53;3.30;;;;;;;10.18;100.00;100253.22;6089491;29;20510;-90
2022/06/01 01:11:56;;;;;;;3.95;3.47;;;;;;;10.19;100.00;100260.03;6091042;29;20051;-89
2022/06/01 01:14:59;;;;;;;7.55;3.17;;;;;;;10.23;100.00;100250.25;6087076;29;20043;-90
2022/06/01 01:18:06;;;;;;;4.55;3.65;;;;;;;10.29;100.00;100257.56;6064406;29;20497;-90
2022/06/01 01:21:40;;;;;;;4.97;3.80;;;;;;;10.40;100.00;100248.91;6072848;29;20243;-90
2022/06/01 01:25:20;;;;;;;4.90;3.42;;;;;;;10.48;100.00;100241.31;6056792;29;20169;-90
2022/06/01 01:28:22;;;;;;;5.00;4.10;;;;;;;10.53;100.00;100240.00;6092099;29;20126;-89
2022/06/01 01:31:25;;;;;;;6.38;3.58;;;;;;;10.57;100.00;100240.56;6094627;29;20324;-90
2022/06/01 01:34:28;;;;;;;4.07;3.67;;;;;;;10.60;100.00;100236.91;6095934;29;20068;-90
2022/06/01 01:37:30;;;;;;;5.95;3.92;;;;;;;10.63;100.00;100231.44;6096627;29;20036;-90
2022/06/01 01:40:34;;;;;;;5.15;3.70;;;;;;;10.65;100.00;100232.16;6094175;29;20044;-90
2022/06/01 01:43:46;;;;;;;5.65;3.67;;;;;;;10.62;100.00;100232.41;6077128;29;20036;-90
2022/06/01 01:46:49;;;;;;;6.90;4.07;;;;;;;10.60;100.00;100234.31;6094694;29;20054;-89
2022/06/01 01:49:51;;;;;;;4.47;3.58;;;;;;;10.61;100.00;100238.53;6095130;29;20048;-90
2022/06/01 01:52:53;;;;;;;5.00;3.33;;;;;;;10.61;100.00;100234.19;6095546;29;20050;-89
2022/06/01 01:56:22;;;;;;;6.35;3.95;;;;;;;10.62;100.00;100230.63;6093386;29;20512;-90
2022/06/01 01:59:40;;;;;;;5.15;3.67;;;;;;;10.61;100.00;100223.84;6088646;29;20410;-90
2022/06/01 02:03:23;;;;;;;4.75;3.67;;;;;;;10.65;100.00;100234.75;6093765;29;20052;-90
2022/06/01 02:06:47;;;;;;;5.10;3.47;;;;;;;10.66;100.00;100234.63;6004459;29;20073;-90
2022/06/01 02:13:09;;;;;;;5.13;4.63;;;;;;;10.59;100.00;100237.84;5986414;29;20581;-90
2022/06/01 02:16:11;;;;;;;5.85;4.00;;;;;;;10.56;100.00;100241.53;5996610;29;20191;-90
2022/06/01 02:19:20;;;;;;;6.50;4.05;;;;;;;10.50;100.00;100237.66;5981548;29;20187;-89
2022/06/01 02:22:23;;;;;;;4.45;4.00;;;;;;;10.52;100.00;100240.13;5998217;29;20297;-89
2022/06/01 02:25:25;;;;;;;4.68;3.83;;;;;;;10.47;100.00;100237.91;5996271;29;20248;-90
2022/06/01 02:28:29;;;;;;;6.72;3.92;;;;;;;10.47;100.00;100234.50;5993676;29;20191;-90
2022/06/01 02:31:31;;;;;;;5.72;4.05;;;;;;;10.46;100.00;100243.22;5987982;29;20356;-90
2022/06/01 02:34:37;;;;;;;5.25;3.80;;;;;;;10.42;100.00;100242.66;5997900;29;20066;-90
2022/06/01 02:37:44;;;;;;;5.90;4.00;;;;;;;10.44;100.00;100248.53;5978610;29;20559;-90
2022/06/01 02:40:46;;;;;;;4.60;4.10;;;;;;;10.47;100.00;100253.44;6004860;29;20060;-90
2022/06/01 02:43:49;;;;;;;4.75;3.47;;;;;;;10.47;100.00;100248.25;6092829;29;20047;-90
2022/06/01 02:46:51;;;;;;;4.97;3.60;;;;;;;10.47;100.00;100257.81;6089399;29;20530;-90
2022/06/01 02:49:54;;;;;;;4.78;4.13;;;;;;;10.46;100.00;100254.41;6092436;29;20774;-90
2022/06/01 02:52:56;;;;;;;6.85;4.32;;;;;;;10.47;100.00;100256.03;6089853;29;20044;-90
2022/06/01 02:55:58;;;;;;;5.47;4.15;;;;;;;10.54;100.00;100259.75;6090095;29;20047;-89
2022/06/01 02:59:00;;;;;;;6.72;4.38;;;;;;;10.65;100.00;100269.19;6094652;29;20044;-90
2022/06/01 03:02:05;;;;;;;5.60;3.92;;;;;;;10.71;100.00;100265.31;6094325;29;20164;-90
2022/06/01 03:05:08;;;;;;;5.28;3.83;;;;;;;10.70;100.00;100258.47;6099666;29;20733;-90
2022/06/01 03:08:10;;;;;;;5.47;4.38;;;;;;;10.66;100.00;100257.91;6094581;29;20048;-90
2022/06/01 03:11:13;;;;;;;6.10;4.10;;;;;;;10.65;100.00;100256.25;6076908;29;20044;-89
2022/06/01 03:14:15;;;;;;;6.15;3.97;;;;;;;10.66;100.00;100259.69;6091391;29;20099;-89
2022/06/01 03:17:17;;;;;;;5.72;4.40;;;;;;;10.60;100.00;100257.59;6093699;29;20065;-91
2022/06/01 03:20:21;;;;;;;4.63;4.05;;;;;;;10.48;100.00;100257.69;6092610;29;20040;-91
2022/06/01 03:23:30;;;;;;;5.18;3.65;;;;;;;10.37;100.00;100254.34;6094993;29;20064;-89
2022/06/01 03:26:32;;;;;;;4.97;3.78;;;;;;;10.30;100.00;100254.81;6094846;29;20040;-89
2022/06/01 03:29:34;;;;;;;7.13;4.25;;;;;;;10.28;100.00;100251.53;6093543;29;20502;-89
2022/06/01 03:32:36;;;;;;;6.28;3.95;;;;;;;10.32;100.00;100249.53;6077053;29;20134;-88
2022/06/01 03:35:39;;;;;;;6.25;4.18;;;;;;;10.30;100.00;100256.59;6097034;29;20497;-89
2022/06/01 03:38:41;;;;;;;5.07;3.95;;;;;;;10.33;100.00;100258.94;6093009;29;20290;-89
2022/06/01 03:41:44;;;;;;;5.53;3.97;;;;;;;10.37;100.00;100256.94;6093697;29;20044;-88
2022/06/01 03:48:08;;;;;;;6.40;4.28;;;;;;;10.47;100.00;100268.97;6092524;29;20783;-89
2022/06/01 03:51:10;;;;;;;4.80;4.30;;;;;;;10.49;100.00;100272.25;6081111;29;20055;-89
2022/06/01 03:54:12;;;;;;;6.28;5.10;;;;;;;10.48;100.00;100274.97;6093906;29;20387;-89
2022/06/01 03:57:14;;;;;;;7.15;5.18;;;;;;;10.47;100.00;100276.72;6093809;29;20516;-88
2022/06/01 04:00:21;;;;;;;7.65;5.22;;;;;;;10.47;100.00;100281.91;6093354;29;20485;-89
2022/06/01 04:03:24;;;;;;;5.90;5.03;;;;;;;10.47;100.00;100292.25;6093861;29;20606;-89
2022/06/01 04:06:26;;;;;;;9.15;5.32;;;;;;;10.57;100.00;100293.13;6100855;29;20545;-88
2022/06/01 04:09:29;;;;;;;7.63;4.75;;;;;;;10.65;100.00;100294.28;6093733;29;20044;-89
2022/06/01 04:12:31;;;;;;;10.73;5.47;;;;;;;10.73;100.00;100300.47;6093154;29;20693;-89
2022/06/01 04:15:33;;;;;;;6.03;4.50;;;;;;;10.85;100.00;100301.19;6075546;29;20187;-89
2022/06/01 04:18:35;;;;;;;5.25;4.57;;;;;;;10.91;100.00;100303.28;6093360;29;20040;-89
2022/06/01 04:21:38;;;;;;;7.85;5.10;;;;;;;10.94;100.00;100303.03;6093504;29;20092;-89
2022/06/01 04:24:40;;;;;;;6.03;5.00;;;;;;;10.95;100.00;100303.84;6092502;29;20917;-89
2022/06/01 04:27:43;;;;;;;5.75;4.82;;;;;;;11.01;100.00;100300.75;6060972;29;20110;-89
2022/06/01 04:30:46;;;;;;;5.15;4.35;;;;;;;11.07;100.00;100294.22;6093011;29;20620;-89
2022/06/01 04:33:48;;;;;;;7.22;5.05;;;;;;;11.11;100.00;100296.41;6092149;29;20044;-89
2022/06/01 04:36:54;;;;;;;6.85;4.40;;;;;;;11.17;100.00;100289.88;6096622;29;20095;-89
2022/06/01 04:39:56;;;;;;;6.40;4.93;;;;;;;11.25;100.00;100300.41;6077180;29;20044;-89
2022/06/01 04:42:58;;;;;;;7.45;4.90;;;;;;;11.27;100.00;100306.28;6092163;29;20540;-89
2022/06/01 04:46:00;;;;;;;5.72;5.10;;;;;;;11.41;100.00;100310.31;6091396;29;20044;-89
2022/06/01 04:49:03;;;;;;;8.32;5.13;;;;;;;11.53;100.00;100311.84;6102971;29;20039;-89
2022/06/01 04:52:06;;;;;;;9.13;5.68;;;;;;;11.63;100.00;100310.09;6090739;29;20740;-89
2022/06/01 04:55:08;;;;;;;7.72;5.50;;;;;;;11.70;100.00;100307.78;6092533;29;20048;-86
2022/06/01 04:58:10;;;;;;;8.27;6.10;;;;;;;11.80;100.00;100300.84;6092479;29;20040;-89
2022/06/01 05:01:13;;;;;;;6.45;4.95;;;;;;;11.83;100.00;100304.94;6091301;29;20040;-89
2022/06/01 05:04:16;;;;;;;7.05;5.93;;;;;;;11.93;100.00;100310.16;6092173;29;20410;-89
2022/06/01 05:07:18;;;;;;;7.97;5.47;;;;;;;12.08;100.00;100308.81;6101831;29;20198;-89
2022/06/01 05:10:23;;;;;;;6.65;5.55;;;;;;;12.22;100.00;100308.41;6091442;29;20059;-89
2022/06/01 05:13:25;;;;;;;7.53;5.90;;;;;;;12.44;100.00;100304.66;6084339;29;20156;-89
2022/06/01 05:16:27;;;;;;;8.40;6.07;;;;;;;12.62;100.00;100298.75;6088874;29;20051;-89
2022/06/01 05:19:32;;;;;;;8.07;5.40;;;;;;;12.79;100.00;100302.41;6091124;29;20060;-89
2022/06/01 05:22:34;;;;;;;6.95;6.15;;;;;;;12.91;100.00;100296.09;6092592;29;20088;-89
2022/06/01 05:25:37;;;;;;;6.70;5.55;;;;;;;13.03;100.00;100296.75;6072900;29;20055;-89
2022/06/01 05:28:39;;;;;;;6.55;5.70;;;;;;;13.07;100.00;100300.72;6091520;29;20037;-90
2022/06/01 05:31:41;;;;;;;7.18;5.78;;;;;;;13.03;100.00;100300.16;6073134;29;20490;-89
2022/06/01 05:34:43;;;;;;;6.00;4.88;;;;;;;13.01;100.00;100293.47;6094596;29;20078;-90
2022/06/01 05:37:45;;;;;;;6.57;5.70;;;;;;;13.01;100.00;100304.66;6059486;29;20072;-89
2022/06/01 05:40:49;;;;;;;6.57;5.85;;;;;;;13.09;100.00;100304.81;6091366;29;20055;-89
2022/06/01 05:43:51;;;;;;;7.85;5.47;;;;;;;13.23;100.00;100308.69;6092207;29;20080;-90
2022/06/01 05:46:58;;;;;;;7.43;5.60;;;;;;;13.36;100.00;100316.19;6091263;29;20106;-90
2022/06/01 05:50:01;;;;;;;7.32;5.90;;;;;;;13.45;100.00;100319.72;6090555;29;20541;-89
2022/06/01 05:53:04;;;;;;;9.02;6.47;;;;;;;13.54;100.00;100324.88;6090538;29;20044;-89
2022/06/01 05:56:07;;;;;;;7.75;6.40;;;;;;;13.34;100.00;100337.16;6061343;29;20045;-90
2022/06/01 05:59:09;;;;;;;7.85;6.07;;;;;;;13.25;100.00;100331.94;6091221;29;20494;-90
2022/06/01 06:02:11;;;;;;;11.10;7.07;;;;;;;13.26;100.00;100338.78;6081559;29;20061;-89
2022/06/01 06:08:34;;;;;;;8.15;7.10;;;;;;;13.13;100.00;100334.72;6089559;29;20048;-90
2022/06/01 06:11:39;;;;;;;9.77;7.30;;;;;;;13.13;100.00;100344.31;6090131;29;20052;-90
2022/06/01 06:14:41;;;;;;;9.32;7.38;;;;;;;13.06;100.00;100341.44;6078229;29;20540;-89
2022/06/01 06:17:43;;;;;;;9.82;7.60;;;;;;;13.08;100.00;100341.31;6094913;29;20052;-90
2022/06/01 06:20:46;;;;;;;11.40;8.20;;;;;;;13.05;100.00;100355.41;6079625;29;20040;-89
2022/06/01 06:23:48;;;;;;;11.73;8.40;;;;;;;13.14;100.00;100351.97;6096335;29;20036;-89
2022/06/01 06:26:50;;;;;;;9.95;8.25;;;;;;;13.08;100.00;100354.31;6096105;29;20058;-90
2022/06/01 06:29:53;;;;;;;10.45;8.43;;;;;;;13.06;100.00;100357.03;6095521;29;20040;-90
2022/06/01 06:32:55;;;;;;;10.10;8.05;;;;;;;13.14;100.00;100357.16;6094587;29;20537;-90
2022/06/01 06:36:07;;;;;;;13.80;9.00;;;;;;;13.42;99.59;100354.63;6096865;29;20416;-90
2022/06/01 06:39:09;;;;;;;9.50;8.32;;;;;;;13.58;98.86;100348.78;6095108;29;20051;-90
2022/06/01 06:42:11;;;;;;;12.23;8.45;;;;;;;13.82;96.77;100355.25;6094564;29;20040;-90
2022/06/01 06:45:13;;;;;;;11.35;8.52;;;;;;;13.96;96.39;100357.31;6096168;29;20048;-90
2022/06/01 06:48:15;;;;;;;9.82;8.07;;;;;;;14.07;92.49;100364.13;6095546;29;20055;-91
2022/06/01 06:51:19;;;;;;;8.98;8.07;;;;;;;14.12;91.51;100356.69;6094379;29;20055;-90
2022/06/01 06:54:21;;;;;;;9.80;7.75;;;;;;;14.14;93.65;100365.97;6095884;29;20055;-91
2022/06/01 06:57:28;;;;;;;9.30;7.25;;;;;;;14.13;93.64;100368.72;6094596;29;20048;-90
2022/06/01 07:00:30;;;;;;;11.18;8.55;;;;;;;14.31;90.89;100377.38;6094879;29;20040;-89
2022/06/01 07:03:32;;;;;;;11.30;8.80;;;;;;;14.55;91.35;100365.53;6095052;29;20048;-89
2022/06/01 07:06:34;;;;;;;9.30;8.00;;;;;;;14.88;88.38;100369.22;6101456;29;20048;-90
2022/06/01 07:09:37;;;;;;;10.32;8.30;;;;;;;15.07;90.79;100368.16;6094899;29;20410;-90
2022/06/01 07:12:38;;;;;;;10.15;7.93;;;;;;;15.09;87.75;100374.06;6093043;29;20036;-89
2022/06/01 07:15:40;;;;;;;9.45;7.40;;;;;;;15.16;86.62;100375.06;6094496;29;20502;-91
2022/06/01 07:18:45;;;;;;;8.50;7.60;;;;;;;15.17;85.72;100378.50;6094942;29;20048;-90
2022/06/01 07:21:47;;;;;;;8.48;6.90;;;;;;;15.26;83.52;100381.00;6091330;29;20494;-90
2022/06/01 07:24:49;;;;;;;9.00;6.47;;;;;;;15.24;83.64;100380.31;6094459;29;20051;-91
2022/06/01 07:27:51;;;;;;;11.80;7.28;;;;;;;15.40;81.59;100383.97;6093520;29;20437;-91
2022/06/01 07:30:59;;;;;;;8.55;7.55;;;;;;;15.77;81.88;100385.47;6093944;29;20040;-90
2022/06/01 07:34:03;;;;;;;9.38;7.72;;;;;;;16.11;79.72;100383.59;6077162;29;20077;-90
2022/06/01 07:43:48;;;;;;;8.02;7.22;;;;;;;16.18;76.66;100381.16;6093508;29;20044;-89
2022/06/01 07:46:51;;;;;;;8.55;7.25;;;;;;;15.99;79.13;100378.84;6093946;29;20153;-90
2022/06/01 07:50:13;;;;;;;7.90;6.75;;;;;;;16.10;79.70;100381.97;6076573;29;20457;-90
2022/06/01 07:53:34;;;;;;;9.05;7.45;;;;;;;16.26;77.62;100388.19;6093710;29;20131;-90
2022/06/01 07:56:37;;;;;;;8.48;7.57;;;;;;;16.36;76.69;100387.03;6093975;29;20072;-90
2022/06/01 07:59:39;;;;;;;9.80;7.65;;;;;;;16.43;77.48;100394.25;6091656;29;20119;-90
2022/06/01 08:02:41;;;;;;;7.95;7.15;;;;;;;16.35;76.60;100398.47;6087490;29;20134;-90
2022/06/01 08:05:43;;;;;;;8.13;6.25;;;;;;;16.25;77.08;100403.06;6095393;29;20171;-91
2022/06/01 08:08:45;;;;;;;9.68;7.38;;;;;;;16.27;77.64;100408.09;6092855;29;20118;-90
2022/06/01 08:15:09;;;;;;;7.07;5.85;;;;;;;16.67;73.13;100403.88;6092771;29;20048;-90
2022/06/01 08:18:21;;;;;;;8.82;6.45;;;;;;;16.85;68.36;100406.38;6092821;29;20209;-90
2022/06/01 08:21:22;;;;;;;9.23;6.80;;;;;;;16.68;71.38;100410.75;6093297;29;20047;-90
2022/06/01 08:24:24;;;;;;;7.43;6.38;;;;;;;16.71;70.20;100405.19;6092497;29;20502;-91
2022/06/01 08:27:26;;;;;;;8.30;7.22;;;;;;;16.88;70.74;100416.50;6092073;29;20052;-90
2022/06/01 08:30:30;;;;;;;7.07;6.38;;;;;;;16.89;68.27;100416.31;6091218;29;20494;-90
2022/06/01 08:33:32;;;;;;;7.15;6.45;;;;;;;16.84;70.27;100410.75;6090716;29;20047;-90
2022/06/01 08:36:37;;;;;;;8.70;6.65;;;;;;;16.99;72.27;100403.06;6093381;29;20044;-90
2022/06/01 08:39:39;;;;;;;6.50;5.30;;;;;;;17.18;69.75;100409.72;6092693;29;20036;-90
2022/06/01 08:42:49;;;;;;;7.95;6.20;;;;;;;17.28;66.38;100418.22;6092043;29;20040;-90
2022/06/01 08:45:58;;;;;;;7.65;6.72;;;;;;;17.28;65.30;100412.97;6093176;29;20047;-90
2022/06/01 08:49:04;;;;;;;8.50;6.55;;;;;;;17.17;68.27;100406.31;6092112;29;20080;-89
2022/06/01 08:52:07;;;;;;;9.27;6.70;;;;;;;17.10;68.16;100407.94;6075237;29;20047;-89
2022/06/01 08:55:09;;;;;;;6.47;5.80;;;;;;;16.96;66.99;100398.97;6093033;29;20043;-90
2022/06/01 08:58:23;;;;;;;8.02;5.30;;;;;;;16.88;68.93;100395.56;6092050;29;20051;-90
2022/06/01 09:01:45;;;;;;;7.63;5.40;;;;;;;16.95;65.70;100394.75;6090181;29;20044;-89
2022/06/01 09:05:12;;;;;;;8.68;5.38;;;;;;;17.07;67.46;100407.44;6093504;29;20149;-90
2022/06/01 09:08:48;;;;;;;7.03;5.47;;;;;;;17.29;66.02;100405.94;6089622;29;20494;-89
2022/06/01 09:11:50;;;;;;;6.55;5.53;;;;;;;17.16;66.13;100403.84;6089185;29;20172;-90
2022/06/01 09:14:57;;;;;;;6.25;5.65;;;;;;;16.80;70.10;100406.84;6091008;29;20077;-89
2022/06/01 09:18:00;;;;;;;7.05;6.35;;;;;;;16.63;68.50;100410.41;6075514;29;20044;-91
2022/06/01 09:24:34;;;;;;;6.72;5.95;;;;;;;17.04;69.11;100407.78;6077159;29;20610;-90
2022/06/01 09:27:51;;;;;;;6.53;5.80;;;;;;;16.63;69.07;100418.25;6091973;29;20051;-90
2022/06/01 09:30:56;;;;;;;7.90;6.15;;;;;;;16.21;71.78;100406.13;6092101;29;20648;-91
2022/06/01 09:34:23;;;;;;;7.28;6.50;;;;;;;16.32;69.22;100403.19;6089452;29;20040;-91
2022/06/01 09:37:31;;;;;;;6.95;6.10;;;;;;;16.73;70.08;100408.47;6099148;29;20092;-92
2022/06/01 09:40:36;;;;;;;9.73;6.57;;;;;;;17.50;67.14;100408.00;6094644;29;20039;-90
2022/06/01 09:43:41;;;;;;;5.30;4.80;;;;;;;17.85;58.46;100402.31;6090078;29;20115;-90
2022/06/01 09:47:00;;;;;;;5.45;4.95;;;;;;;17.69;61.95;100406.78;6091114;29;20131;-89
2022/06/01 09:50:20;;;;;;;6.93;5.30;;;;;;;17.57;61.88;100408.97;6075977;29;20477;-88
2022/06/01 09:53:22;;;;;;;7.55;5.68;;;;;;;17.86;61.19;100401.34;6095089;29;20127;-90
2022/06/01 09:56:33;;;;;;;7.55;5.50;;;;;;;18.19;58.15;100392.47;6093707;29;20076;-89
2022/06/01 10:06:30;;;;;;;6.68;6.03;;;;;;;17.42;67.75;100396.59;6092762;29;20060;-90
2022/06/01 10:09:34;;;;;;;9.15;7.40;;;;;;;16.54;72.99;100410.41;6091719;29;20048;-89
2022/06/01 10:12:41;;;;;;;9.77;8.77;;;;;;;15.96;86.28;100408.69;6092074;29;20036;-89
2022/06/01 10:15:51;;;;;;;8.93;8.02;;;;;;;15.98;83.64;100413.75;6093639;29;20036;-90
2022/06/01 10:18:57;;;;;;;10.15;8.02;;;;;;;15.90;80.56;100411.94;6093088;29;20044;-90
2022/06/01 10:22:27;;;;;;;11.90;7.85;;;;;;;15.69;80.83;100404.50;6094202;29;20126;-89
2022/06/01 10:25:52;;;;;;;12.38;8.55;;;;;;;15.98;79.73;100400.72;6092595;29;20040;-90
2022/06/01 10:29:03;;;;;;;10.68;8.07;;;;;;;16.26;77.46;100403.84;6074834;29;20044;-90
2022/06/01 10:32:10;;;;;;;8.52;7.65;;;;;;;16.36;75.47;100402.72;6074966;29;20773;-90
2022/06/01 10:35:52;;;;;;;8.75;7.85;;;;;;;16.40;75.14;100397.16;6092317;29;20052;-90
2022/06/01 10:39:16;;;;;;;8.77;7.18;;;;;;;16.18;76.13;100396.03;6093898;29;20510;-89
2022/06/01 10:46:28;;;;;;;7.40;6.70;;;;;;;16.01;80.38;100395.97;6093622;29;20509;-91
2022/06/01 10:50:03;;;;;;;7.65;6.85;;;;;;;16.38;75.14;100397.34;6089056;29;20094;-91
2022/06/01 10:53:33;;;;;;;7.07;5.95;;;;;;;16.68;74.81;100397.69;6091862;29;21388;-91
2022/06/01 10:56:36;;;;;;;7.10;6.20;;;;;;;16.78;73.06;100396.56;6094049;29;20044;-90
2022/06/01 10:59:38;;;;;;;8.45;6.35;;;;;;;16.57;74.04;100402.25;6091647;29;20048;-91
2022/06/01 11:03:17;;;;;;;8.73;6.50;;;;;;;16.18;77.66;100406.47;6095353;29;20501;-89
2022/06/01 11:06:54;;;;;;;9.27;6.70;;;;;;;16.20;81.58;100396.66;6092976;29;20051;-89
2022/06/01 11:10:28;;;;;;;7.78;6.63;;;;;;;16.95;77.64;100392.13;6094747;29;20194;-89
2022/06/01 11:13:58;;;;;;;7.68;6.22;;;;;;;17.76;73.90;100384.16;6065974;29;20558;-89
2022/06/01 11:17:08;;;;;;;7.47;6.63;;;;;;;18.54;65.66;100383.19;6089674;29;20478;-89
2022/06/01 11:20:42;;;;;;;7.25;6.03;;;;;;;19.07;64.37;100378.78;6091854;29;20044;-90
2022/06/01 11:24:16;;;;;;;7.80;6.55;;;;;;;19.14;60.30;100371.00;6094769;29;20044;-89
2022/06/01 11:31:13;;;;;;;7.88;6.60;;;;;;;18.79;60.78;100380.38;6234391;23;20044;-96
2022/06/01 11:34:39;;;;;;;8.10;7.15;;;;;;;18.51;66.17;100386.19;6121644;29;20067;-96
2022/06/01 11:38:04;;;;;;;6.97;6.25;;;;;;;18.14;63.10;100400.03;6112449;29;20044;-96
2022/06/01 11:41:28;;;;;;;7.32;6.45;;;;;;;17.32;69.87;100401.19;6111558;29;20064;-96
2022/06/01 11:44:36;;;;;;;10.50;6.88;;;;;;;16.88;73.25;100406.03;6249084;23;20094;-96
2022/06/01 11:47:46;;;;;;;10.13;8.18;;;;;;;16.12;97.07;100410.50;6067235;29;20515;-90
2022/06/01 11:54:34;;;;;;;11.05;8.80;;;;;;;15.20;100.00;100414.69;6913647;23;20060;-96
2022/06/01 12:01:31;;;;;;;12.25;9.20;;;;;;;15.17;100.00;100418.41;6118763;29;20048;-96
2022/06/01 12:04:42;;;;;;;11.80;10.00;;;;;;;14.98;100.00;100421.22;6093458;29;20049;-96
2022/06/01 12:11:39;;;;;;;10.90;9.75;;;;;;;14.29;100.00;100409.72;6122648;23;20059;-96
2022/06/01 12:15:02;;;;;;;10.70;8.32;;;;;;;14.08;100.00;100417.78;6122870;29;20044;-96
2022/06/01 12:18:14;;;;;;;6.80;6.10;;;;;;;13.89;100.00;100408.34;6089671;29;20058;-96
2022/06/01 12:21:29;;;;;;;9.18;6.15;;;;;;;13.70;100.00;100404.03;6113299;29;20482;-96
2022/06/01 12:28:43;;;;;;;4.20;3.80;;;;;;;14.69;100.00;100396.25;6090917;29;20052;-96
2022/06/01 12:32:08;;;;;;;3.30;2.97;;;;;;;15.47;100.00;100403.25;6107662;29;20442;-96
2022/06/01 12:35:19;;;;;;;2.45;2.25;;;;;;;16.04;100.00;100408.69;6313983;23;20053;-88
2022/06/01 12:38:38;;;;;;;3.17;2.80;;;;;;;16.38;98.19;100404.38;6067382;29;20530;-96
2022/06/01 12:41:43;;;;;;;4.38;3.95;;;;;;;16.78;99.26;100398.34;6048213;29;20221;-96
2022/06/01 12:44:50;;;;;;;4.80;4.30;;;;;;;17.18;90.06;100391.41;6054240;29;20044;-95
2022/06/01 12:48:27;;;;;;;6.18;5.38;;;;;;;17.39;83.49;100391.69;6068520;29;20053;-96
2022/06/01 12:51:29;;;;;;;6.10;5.60;;;;;;;17.50;79.00;100387.06;6045724;29;20520;-96
2022/06/01 12:54:50;;;;;;;5.63;5.03;;;;;;;18.64;77.17;100389.00;6069738;29;20055;-90
2022/06/01 12:57:55;;;;;;;5.80;5.30;;;;;;;18.75;78.45;100395.63;6042172;29;20542;-90
2022/06/01 13:00:59;;;;;;;4.57;4.18;;;;;;;17.94;76.16;100391.81;6061865;29;20059;-89
2022/06/01 13:04:01;;;;;;;6.28;5.63;;;;;;;17.26;78.82;100395.81;6049240;29;20048;-90
2022/06/01 13:07:07;;;;;;;6.00;5.50;;;;;;;17.52;81.64;100400.81;6069512;29;20577;-88
2022/06/01 13:10:19;;;;;;;6.43;5.93;;;;;;;18.09;73.88;100382.22;6058646;29;20213;-90
2022/06/01 13:13:28;;;;;;;5.93;5.43;;;;;;;18.86;76.89;100374.25;6059131;29;20045;-90
2022/06/01 13:16:38;;;;;;;8.23;6.97;;;;;;;19.16;66.27;100382.13;6069192;29;20430;-89
2022/06/01 13:19:40;;;;;;;4.75;4.20;;;;;;;18.56;71.06;100386.47;6061398;29;20053;-89
2022/06/01 13:22:50;;;;;;;5.20;4.70;;;;;;;17.85;73.11;100391.84;6043925;29;20055;-90
2022/06/01 13:25:53;;;;;;;5.15;4.65;;;;;;;17.73;73.70;100387.94;6054875;29;20115;-90
2022/06/01 13:29:07;;;;;;;4.38;3.95;;;;;;;17.65;70.97;100388.78;6055032;29;20177;-90
2022/06/01 13:32:12;;;;;;;3.25;2.45;;;;;;;17.55;68.72;100393.41;6066245;29;20079;-90
2022/06/01 13:35:35;;;;;;;2.03;1.92;;;;;;;18.20;68.17;100399.34;6042924;29;20609;-89
2022/06/01 13:38:49;;;;;;;2.42;1.60;;;;;;;19.43;60.01;100392.97;6047877;29;20037;-89
2022/06/01 13:41:55;;;;;;;2.10;1.60;;;;;;;19.50;53.21;100380.75;6058144;29;20093;-90
2022/06/01 13:45:18;;;;;;;2.08;1.92;;;;;;;19.15;55.45;100373.47;6040534;29;20515;-89
2022/06/01 13:48:48;;;;;;;2.17;2.00;;;;;;;19.00;58.31;100385.72;6068286;29;20473;-89
2022/06/01 13:51:59;;;;;;;3.88;2.47;;;;;;;18.41;57.41;100390.81;6064588;29;20041;-90
2022/06/01 13:55:19;;;;;;;3.38;3.08;;;;;;;17.63;66.52;100395.19;6051489;29;20041;-91
2022/06/01 13:58:31;;;;;;;4.00;3.20;;;;;;;16.96;66.66;100404.19;6041993;29;20044;-90
2022/06/01 14:01:35;;;;;;;2.90;2.70;;;;;;;16.56;69.70;100441.59;6059895;29;20048;-90
2022/06/01 14:05:00;;;;;;;7.93;2.60;;;;;;;15.95;78.89;100503.66;6055329;29;20048;-90
2022/06/01 14:08:12;;;;;;;5.30;2.80;;;;;;;14.64;96.33;100498.31;6043233;29;20108;-89
2022/06/01 14:11:22;;;;;;;6.13;2.72;;;;;;;13.55;100.00;100515.53;6062413;29;20519;-88
2022/06/01 14:14:30;;;;;;;2.65;1.83;;;;;;;12.57;100.00;100504.34;6046338;29;20391;-88
2022/06/01 14:17:31;;;;;;;3.10;2.50;;;;;;;12.16;100.00;100498.34;6054325;29;20076;-87
2022/06/01 14:20:38;;;;;;;2.33;1.70;;;;;;;11.79;100.00;100495.47;6050847;29;20498;-87
2022/06/01 14:23:40;;;;;;;3.80;1.90;;;;;;;11.57;100.00;100483.47;6056518;29;20043;-86
2022/06/01 14:30:03;;;;;;;4.00;2.07;;;;;;;11.73;100.00;100464.88;6052592;29;21329;-87
2022/06/01 14:33:08;;;;;;;3.42;1.85;;;;;;;12.15;100.00;100456.97;6054429;29;20053;-87
2022/06/01 14:36:17;;;;;;;2.20;2.00;;;;;;;12.75;100.00;100467.31;6054908;29;20562;-88
2022/06/01 14:39:20;;;;;;;3.05;1.83;;;;;;;13.43;100.00;100473.25;6057376;29;20048;-87
2022/06/01 14:42:22;;;;;;;1.77;1.60;;;;;;;13.55;100.00;100482.53;6049624;29;20079;-87
2022/06/01 14:45:24;;;;;;;1.77;1.67;;;;;;;13.46;100.00;100490.34;6057861;29;20053;-87
2022/06/01 14:48:26;;;;;;;2.58;1.88;;;;;;;13.38;100.00;100516.25;6056251;29;20075;-87
2022/06/01 14:51:35;;;;;;;2.25;1.55;;;;;;;13.51;100.00;100517.56;6059862;29;20499;-87
2022/06/01 14:54:39;;;;;;;2.35;1.70;;;;;;;13.48;100.00;100520.47;6058164;29;20131;-88
2022/06/01 14:57:41;;;;;;;2.40;2.20;;;;;;;13.35;100.00;100525.97;6064596;29;20052;-88
2022/06/01 15:00:45;;;;;;;2.55;2.35;;;;;;;13.44;100.00;100513.91;6073027;29;20055;-88
2022/06/01 15:03:49;;;;;;;3.20;2.90;;;;;;;13.39;100.00;100503.13;6065177;29;20071;-88
2022/06/01 15:06:51;;;;;;;5.38;3.00;;;;;;;13.30;100.00;100501.34;6063631;29;20048;-88
2022/06/01 15:09:53;;;;;;;3.20;2.90;;;;;;;13.23;100.00;100497.63;6066940;29;20052;-88
2022/06/01 15:12:56;;;;;;;5.18;3.00;;;;;;;13.22;100.00;100493.41;6046565;29;20045;-88
2022/06/01 15:15:59;;;;;;;3.58;3.28;;;;;;;13.08;100.00;100485.06;6052093;29;20084;-88
2022/06/01 15:19:01;;;;;;;3.92;2.60;;;;;;;13.20;100.00;100482.31;6058420;29;20041;-89
2022/06/01 15:22:04;;;;;;;3.15;2.85;;;;;;;13.46;100.00;100483.38;6056659;29;20477;-89